Time,TemperatureF,DewpointF,PressureIn,WindDirection,WindDirectionDegrees,WindSpeedMPH,WindSpeedGustMPH,Humidity,HourlyPrecipIn,Conditions,Clouds,dailyrainin,SoftwareType,DateUTC
2013-01-09 00:10:00,22.9,22.0,30.38,SSE,151,0.0,0.0,96,0.00,,,0.00,weatherlink.com 1.10,2013-01-09 05:10:00,
2013-01-09 00:26:00,22.0,21.0,30.38,SSE,150,0.0,0.0,96,0.00,,,0.00,weatherlink.com 1.10,2013-01-09 05:26:00,
2013-01-09 00:40:00,22.4,22.0,30.38,SSE,151,0.0,0.0,96,0.00,,,0.00,weatherlink.com 1.10,2013-01-09 05:40:00,
2013-01-09 00:55:00,21.4,20.0,30.38,SSE,150,0.0,0.0,95,0.00,,,0.00,weatherlink.com 1.10,2013-01-09 05:55:00,
2013-01-09 01:10:00,20.9,20.0,30.38,SSE,150,0.0,0.0,96,0.00,,,0.00,weatherlink.com 1.10,2013-01-09 06:10:00,
2013-01-09 01:25:00,21.0,20.0,30.38,SSE,150,0.0,0.0,96,0.00,,,0.00,weatherlink.com 1.10,2013-01-09 06:25:00,
2013-01-09 01:40:00,20.3,19.0,30.38,SSE,150,0.0,0.0,96,0.00,,,0.00,weatherlink.com 1.10,2013-01-09 06:40:00,
2013-01-09 01:56:00,20.6,20.0,30.38,SSE,150,0.0,0.0,96,0.00,,,0.00,weatherlink.com 1.10,2013-01-09 06:56:00,
2013-01-09 02:11:00,20.0,19.0,30.39,SSE,150,0.0,0.0,95,0.00,,,0.00,weatherlink.com 1.10,2013-01-09 07:11:00,
2013-01-09 02:26:00,19.7,19.0,30.39,SSE,151,0.0,0.0,96,0.00,,,0.00,weatherlink.com 1.10,2013-01-09 07:26:00,
2013-01-09 02:41:00,19.3,18.0,30.40,SSE,150,0.0,0.0,95,0.00,,,0.00,weatherlink.com 1.10,2013-01-09 07:41:00,
2013-01-09 02:56:00,19.2,18.0,30.39,SSE,151,0.0,0.0,96,0.00,,,0.00,weatherlink.com 1.10,2013-01-09 07:56:00,
2013-01-09 03:11:00,18.9,18.0,30.39,SSE,150,0.0,0.0,95,0.00,,,0.00,weatherlink.com 1.10,2013-01-09 08:11:00,
2013-01-09 03:26:00,18.7,18.0,30.39,SSE,151,0.0,0.0,95,0.00,,,0.00,weatherlink.com 1.10,2013-01-09 08:26:00,
2013-01-09 03:41:00,18.5,17.0,30.39,SSE,151,0.0,0.0,95,0.00,,,0.00,weatherlink.com 1.10,2013-01-09 08:41:00,
2013-01-09 03:56:00,18.6,18.0,30.38,SSE,150,0.0,0.0,96,0.00,,,0.00,weatherlink.com 1.10,2013-01-09 08:56:00,
2013-01-09 04:11:00,18.1,17.0,30.38,SSE,151,0.0,0.0,95,0.00,,,0.00,weatherlink.com 1.10,2013-01-09 09:11:00,
2013-01-09 04:26:00,17.6,16.0,30.37,SSE,150,0.0,0.0,95,0.00,,,0.00,weatherlink.com 1.10,2013-01-09 09:26:00,
2013-01-09 04:41:00,17.2,16.0,30.37,SSE,151,0.0,0.0,95,0.00,,,0.00,weatherlink.com 1.10,2013-01-09 09:41:00,
2013-01-09 04:56:00,17.1,16.0,30.37,SSE,150,0.0,0.0,95,0.00,,,0.00,weatherlink.com 1.10,2013-01-09 09:56:00,
2013-01-09 05:11:00,17.2,16.0,30.38,SSE,151,0.0,0.0,95,0.00,,,0.00,weatherlink.com 1.10,2013-01-09 10:11:00,
2013-01-09 05:26:00,17.3,16.0,30.38,SSE,151,0.0,0.0,95,0.00,,,0.00,weatherlink.com 1.10,2013-01-09 10:26:00,
2013-01-09 05:41:00,17.4,16.0,30.38,SSE,151,0.0,0.0,95,0.00,,,0.00,weatherlink.com 1.10,2013-01-09 10:41:00,
2013-01-09 05:56:00,17.6,16.0,30.39,SSE,150,0.0,0.0,95,0.00,,,0.00,weatherlink.com 1.10,2013-01-09 10:56:00,
2013-01-09 06:11:00,17.2,16.0,30.39,SSE,150,0.0,0.0,95,0.00,,,0.00,weatherlink.com 1.10,2013-01-09 11:11:00,
2013-01-09 06:26:00,17.1,16.0,30.39,SSE,151,0.0,0.0,95,0.00,,,0.00,weatherlink.com 1.10,2013-01-09 11:26:00,
2013-01-09 06:41:00,16.8,15.0,30.39,SSE,151,0.0,0.0,94,0.00,,,0.00,weatherlink.com 1.10,2013-01-09 11:41:00,
2013-01-09 06:56:00,17.1,16.0,30.38,SSE,151,0.0,0.0,95,0.00,,,0.00,weatherlink.com 1.10,2013-01-09 11:56:00,
2013-01-09 07:11:00,17.4,16.0,30.39,SSE,151,0.0,0.0,95,0.00,,,0.00,weatherlink.com 1.10,2013-01-09 12:11:00,
2013-01-09 07:26:00,17.3,16.0,30.39,SSE,150,0.0,0.0,95,0.00,,,0.00,weatherlink.com 1.10,2013-01-09 12:26:00,
2013-01-09 07:41:00,17.1,16.0,30.40,SSE,150,0.0,0.0,94,0.00,,,0.00,weatherlink.com 1.10,2013-01-09 12:41:00,
2013-01-09 07:56:00,17.6,16.0,30.39,SSE,150,0.0,0.0,95,0.00,,,0.00,weatherlink.com 1.10,2013-01-09 12:56:00,
2013-01-09 08:11:00,18.7,18.0,30.39,SSE,150,0.0,0.0,95,0.00,,,0.00,weatherlink.com 1.10,2013-01-09 13:11:00,
2013-01-09 08:26:00,19.6,19.0,30.38,SSE,151,0.0,0.0,96,0.00,,,0.00,weatherlink.com 1.10,2013-01-09 13:26:00,
2013-01-09 08:41:00,21.3,20.0,30.39,SSE,151,0.0,0.0,96,0.00,,,0.00,weatherlink.com 1.10,2013-01-09 13:41:00,
2013-01-09 08:56:00,23.2,22.0,30.38,SSE,150,0.0,0.0,96,0.00,,,0.00,weatherlink.com 1.10,2013-01-09 13:56:00,
2013-01-09 09:11:00,25.3,25.0,30.38,SSE,151,0.0,0.0,97,0.00,,,0.00,weatherlink.com 1.10,2013-01-09 14:11:00,
2013-01-09 09:26:00,26.9,26.0,30.38,SSE,150,0.0,0.0,97,0.00,,,0.00,weatherlink.com 1.10,2013-01-09 14:26:00,
2013-01-09 09:41:00,28.4,27.0,30.38,SSE,150,0.0,0.0,96,0.00,,,0.00,weatherlink.com 1.10,2013-01-09 14:41:00,
2013-01-09 09:56:00,29.7,29.0,30.38,SSE,149,0.0,0.0,96,0.00,,,0.00,weatherlink.com 1.10,2013-01-09 14:56:00,
2013-01-09 10:11:00,30.8,30.0,30.37,SSE,149,0.0,0.0,95,0.00,,,0.00,weatherlink.com 1.10,2013-01-09 15:11:00,
2013-01-09 10:27:00,31.7,30.0,30.36,SSE,150,0.0,0.0,93,0.00,,,0.00,weatherlink.com 1.10,2013-01-09 15:27:00,
2013-01-09 10:41:00,32.7,30.0,30.34,SE,143,0.0,0.0,91,0.00,,,0.00,weatherlink.com 1.10,2013-01-09 15:41:00,
2013-01-09 10:56:00,33.7,31.0,30.33,SE,143,0.0,0.0,90,0.00,,,0.00,weatherlink.com 1.10,2013-01-09 15:56:00,
2013-01-09 11:12:00,34.6,31.0,30.31,SE,142,0.0,0.0,86,0.00,,,0.00,weatherlink.com 1.10,2013-01-09 16:12:00,
2013-01-09 11:27:00,35.2,31.0,30.29,SE,142,0.0,0.0,86,0.00,,,0.00,weatherlink.com 1.10,2013-01-09 16:27:00,
2013-01-09 11:42:00,36.4,32.0,30.26,SE,143,0.0,0.0,83,0.00,,,0.00,weatherlink.com 1.10,2013-01-09 16:42:00,
2013-01-09 11:57:00,37.3,32.0,30.27,ESE,120,0.0,0.0,80,0.00,,,0.00,weatherlink.com 1.10,2013-01-09 16:57:00,
2013-01-09 12:12:00,38.5,32.0,30.27,East,80,1.0,1.0,76,0.00,,,0.00,weatherlink.com 1.10,2013-01-09 17:12:00,
2013-01-09 12:27:00,38.7,31.0,30.26,ESE,109,0.0,1.0,74,0.00,,,0.00,weatherlink.com 1.10,2013-01-09 17:27:00,
2013-01-09 12:57:00,41.0,33.0,30.23,ESE,109,0.0,1.0,72,0.00,,,0.00,weatherlink.com 1.10,2013-01-09 17:57:00,
2013-01-09 13:12:00,41.9,33.0,30.24,ESE,109,0.0,1.0,70,0.00,,,0.00,weatherlink.com 1.10,2013-01-09 18:12:00,
2013-01-09 13:27:00,41.2,33.0,30.25,ESE,109,0.0,0.0,72,0.00,,,0.00,weatherlink.com 1.10,2013-01-09 18:27:00,
2013-01-09 13:42:00,40.0,33.0,30.25,ESE,112,0.0,1.0,75,0.00,,,0.00,weatherlink.com 1.10,2013-01-09 18:42:00,
2013-01-09 13:57:00,39.5,33.0,30.23,ESE,112,0.0,0.0,77,0.00,,,0.00,weatherlink.com 1.10,2013-01-09 18:57:00,
2013-01-09 14:12:00,38.6,33.0,30.21,ESE,113,0.0,1.0,80,0.00,,,0.00,weatherlink.com 1.10,2013-01-09 19:12:00,
2013-01-09 14:27:00,38.8,33.0,30.20,ESE,113,0.0,0.0,80,0.00,,,0.00,weatherlink.com 1.10,2013-01-09 19:27:00,
2013-01-09 14:42:00,37.7,33.0,30.18,ESE,117,0.0,2.0,83,0.00,,,0.00,weatherlink.com 1.10,2013-01-09 19:42:00,
2013-01-09 14:57:00,38.4,34.0,30.16,ESE,117,0.0,1.0,83,0.00,,,0.00,weatherlink.com 1.10,2013-01-09 19:57:00,
2013-01-09 15:12:00,38.9,35.0,30.14,SE,131,0.0,2.0,84,0.00,,,0.00,weatherlink.com 1.10,2013-01-09 20:12:00,
2013-01-09 15:27:00,38.0,35.0,30.14,East,95,1.0,2.0,87,0.00,,,0.00,weatherlink.com 1.10,2013-01-09 20:27:00,
2013-01-09 15:42:00,38.0,34.0,30.12,ESE,110,0.0,2.0,86,0.00,,,0.00,weatherlink.com 1.10,2013-01-09 20:42:00,
2013-01-09 15:57:00,37.6,35.0,30.14,East,101,1.0,4.0,89,0.00,,,0.00,weatherlink.com 1.10,2013-01-09 20:57:00,
2013-01-09 16:12:00,38.0,35.0,30.12,ESE,115,0.0,1.0,87,0.00,,,0.00,weatherlink.com 1.10,2013-01-09 21:12:00,
2013-01-09 16:27:00,37.6,34.0,30.12,ESE,117,0.0,0.0,87,0.00,,,0.00,weatherlink.com 1.10,2013-01-09 21:27:00,
2013-01-09 16:42:00,36.8,34.0,30.12,ESE,117,0.0,0.0,88,0.00,,,0.00,weatherlink.com 1.10,2013-01-09 21:42:00,
2013-01-09 16:57:00,36.6,34.0,30.13,ESE,117,0.0,0.0,90,0.00,,,0.00,weatherlink.com 1.10,2013-01-09 21:57:00,
2013-01-09 17:12:00,36.7,34.0,30.13,ESE,117,0.0,0.0,89,0.00,,,0.00,weatherlink.com 1.10,2013-01-09 22:12:00,
2013-01-09 17:27:00,36.4,34.0,30.13,SE,127,0.0,0.0,90,0.00,,,0.00,weatherlink.com 1.10,2013-01-09 22:27:00,
2013-01-09 17:42:00,35.5,33.0,30.12,ESE,109,0.0,1.0,90,0.00,,,0.00,weatherlink.com 1.10,2013-01-09 22:42:00,
2013-01-09 17:57:00,34.0,32.0,30.11,ESE,122,0.0,1.0,91,0.00,,,0.00,weatherlink.com 1.10,2013-01-09 22:57:00,
2013-01-09 18:12:00,33.5,32.0,30.12,East,96,0.0,2.0,93,0.00,,,0.00,weatherlink.com 1.10,2013-01-09 23:12:00,
2013-01-09 18:27:00,33.0,31.0,30.13,WNW,298,0.0,0.0,93,0.00,,,0.00,weatherlink.com 1.10,2013-01-09 23:27:00,
2013-01-09 18:42:00,33.2,32.0,30.14,ESE,110,0.0,0.0,94,0.00,,,0.00,weatherlink.com 1.10,2013-01-09 23:42:00,
2013-01-09 18:57:00,32.4,31.0,30.14,SE,132,0.0,0.0,94,0.00,,,0.00,weatherlink.com 1.10,2013-01-09 23:57:00,
2013-01-09 19:12:00,31.7,31.0,30.15,NW,307,0.0,2.0,95,0.00,,,0.00,weatherlink.com 1.10,2013-01-10 00:12:00,
2013-01-09 19:27:00,32.3,31.0,30.14,East,96,1.0,5.0,96,0.00,,,0.00,weatherlink.com 1.10,2013-01-10 00:27:00,
2013-01-09 19:42:00,34.5,33.0,30.14,ESE,117,2.0,3.0,94,0.00,,,0.00,weatherlink.com 1.10,2013-01-10 00:42:00,
2013-01-09 19:57:00,35.6,34.0,30.15,South,169,0.0,3.0,92,0.00,,,0.00,weatherlink.com 1.10,2013-01-10 00:57:00,
2013-01-09 20:27:00,34.5,33.0,30.14,SE,132,0.0,1.0,92,0.00,,,0.00,weatherlink.com 1.10,2013-01-10 01:27:00,
2013-01-09 20:42:00,33.7,32.0,30.14,NW,315,1.0,3.0,94,0.00,,,0.00,weatherlink.com 1.10,2013-01-10 01:42:00,
2013-01-09 20:57:00,32.4,31.0,30.14,NW,315,0.0,0.0,94,0.00,,,0.00,weatherlink.com 1.10,2013-01-10 01:57:00,
2013-01-09 21:12:00,31.3,30.0,30.14,NW,315,0.0,1.0,95,0.00,,,0.00,weatherlink.com 1.10,2013-01-10 02:12:00,
2013-01-09 21:27:00,30.4,29.0,30.14,NNE,33,0.0,0.0,95,0.00,,,0.00,weatherlink.com 1.10,2013-01-10 02:27:00,
2013-01-09 21:42:00,30.4,29.0,30.15,ESE,122,0.0,0.0,96,0.00,,,0.00,weatherlink.com 1.10,2013-01-10 02:42:00,
2013-01-09 21:58:00,31.3,31.0,30.15,WSW,242,0.0,3.0,97,0.00,,,0.00,weatherlink.com 1.10,2013-01-10 02:58:00,
2013-01-09 22:13:00,33.0,32.0,30.15,SE,127,0.0,3.0,97,0.00,,,0.00,weatherlink.com 1.10,2013-01-10 03:13:00,
2013-01-09 22:28:00,36.4,34.0,30.15,West,276,0.0,3.0,92,0.00,,,0.00,weatherlink.com 1.10,2013-01-10 03:28:00,
2013-01-09 22:43:00,35.6,33.0,30.16,SE,127,0.0,2.0,90,0.00,,,0.00,weatherlink.com 1.10,2013-01-10 03:43:00,
2013-01-09 22:58:00,34.7,32.0,30.15,SSW,205,0.0,8.0,90,0.00,,,0.00,weatherlink.com 1.10,2013-01-10 03:58:00,
2013-01-09 23:13:00,33.7,32.0,30.15,ESE,110,0.0,4.0,92,0.00,,,0.00,weatherlink.com 1.10,2013-01-10 04:13:00,
2013-01-09 23:28:00,36.8,34.0,30.16,SW,235,1.0,4.0,89,0.00,,,0.00,weatherlink.com 1.10,2013-01-10 04:28:00,
2013-01-09 23:43:00,39.3,34.0,30.16,WSW,251,0.0,4.0,82,0.00,,,0.00,weatherlink.com 1.10,2013-01-10 04:43:00,
2013-01-09 23:58:00,40.1,34.0,30.16,North,359,0.0,4.0,80,0.01,,,0.01,weatherlink.com 1.10,2013-01-10 04:58:00,